sensor_id;sensor_type;location;lat;lon;timestamp;pressure;altitude;pressure_sealevel;temperature;humidity
23164;BME280;31429;42.674;23.350;2023-07-08T00:00:25;95076.03;;;20.06;100.00
23164;BME280;31429;42.674;23.350;2023-07-08T00:01:25;95063.22;;;20.16;100.00
23164;BME280;31429;42.674;23.350;2023-07-08T00:02:26;95073.00;;;20.12;100.00
23164;BME280;31429;42.674;23.350;2023-07-08T00:03:27;95069.03;;;20.19;100.00
23164;BME280;31429;42.674;23.350;2023-07-08T00:04:27;95058.22;;;20.13;100.00
23164;BME280;31429;42.674;23.350;2023-07-08T00:05:28;95067.41;;;19.93;100.00
23164;BME280;31429;42.674;23.350;2023-07-08T00:06:30;95064.41;;;19.99;100.00
23164;BME280;31429;42.674;23.350;2023-07-08T00:07:31;95065.72;;;20.04;100.00
23164;BME280;31429;42.674;23.350;2023-07-08T00:08:31;95052.84;;;20.28;100.00
23164;BME280;31429;42.674;23.350;2023-07-08T00:09:32;95058.34;;;20.11;100.00
23164;BME280;31429;42.674;23.350;2023-07-08T00:10:33;95057.53;;;20.11;100.00
23164;BME280;31429;42.674;23.350;2023-07-08T00:11:33;95061.38;;;20.18;100.00
23164;BME280;31429;42.674;23.350;2023-07-08T00:12:34;95062.22;;;20.05;100.00
23164;BME280;31429;42.674;23.350;2023-07-08T00:13:34;95060.44;;;20.06;100.00
23164;BME280;31429;42.674;23.350;2023-07-08T00:14:35;95054.94;;;19.98;100.00
23164;BME280;31429;42.674;23.350;2023-07-08T00:15:37;95054.44;;;19.93;100.00
23164;BME280;31429;42.674;23.350;2023-07-08T00:16:38;95049.66;;;19.87;100.00
23164;BME280;31429;42.674;23.350;2023-07-08T00:17:39;95053.22;;;19.86;100.00
23164;BME280;31429;42.674;23.350;2023-07-08T00:18:40;95054.06;;;19.74;100.00
23164;BME280;31429;42.674;23.350;2023-07-08T00:19:41;95047.41;;;19.82;100.00
23164;BME280;31429;42.674;23.350;2023-07-08T00:20:45;95042.22;;;19.82;100.00
23164;BME280;31429;42.674;23.350;2023-07-08T00:21:47;95043.56;;;19.88;100.00
23164;BME280;31429;42.674;23.350;2023-07-08T00:22:48;95050.41;;;19.89;100.00
23164;BME280;31429;42.674;23.350;2023-07-08T00:23:51;95054.47;;;19.80;100.00
23164;BME280;31429;42.674;23.350;2023-07-08T00:24:51;95045.34;;;19.75;100.00
23164;BME280;31429;42.674;23.350;2023-07-08T00:25:52;95046.16;;;19.75;100.00
23164;BME280;31429;42.674;23.350;2023-07-08T00:26:53;95047.72;;;19.78;100.00
23164;BME280;31429;42.674;23.350;2023-07-08T00:27:54;95039.81;;;19.79;100.00
23164;BME280;31429;42.674;23.350;2023-07-08T00:28:55;95045.66;;;19.70;100.00
23164;BME280;31429;42.674;23.350;2023-07-08T00:29:55;95040.16;;;19.75;100.00
23164;BME280;31429;42.674;23.350;2023-07-08T00:30:56;95042.22;;;19.70;100.00
23164;BME280;31429;42.674;23.350;2023-07-08T00:31:58;95042.94;;;19.84;100.00
23164;BME280;31429;42.674;23.350;2023-07-08T00:32:58;95039.19;;;19.76;100.00
23164;BME280;31429;42.674;23.350;2023-07-08T00:33:59;95038.78;;;19.82;100.00
23164;BME280;31429;42.674;23.350;2023-07-08T00:35:04;95047.28;;;19.84;100.00
23164;BME280;31429;42.674;23.350;2023-07-08T00:36:09;95037.34;;;19.78;100.00
23164;BME280;31429;42.674;23.350;2023-07-08T00:37:12;95041.00;;;19.63;100.00
23164;BME280;31429;42.674;23.350;2023-07-08T00:38:28;95033.91;;;19.77;100.00
23164;BME280;31429;42.674;23.350;2023-07-08T00:39:28;95031.41;;;19.88;100.00
23164;BME280;31429;42.674;23.350;2023-07-08T00:40:31;95027.56;;;19.94;100.00
23164;BME280;31429;42.674;23.350;2023-07-08T00:41:36;95042.53;;;19.78;100.00
23164;BME280;31429;42.674;23.350;2023-07-08T00:42:39;95031.19;;;19.91;100.00
23164;BME280;31429;42.674;23.350;2023-07-08T00:43:43;95035.69;;;19.77;100.00
23164;BME280;31429;42.674;23.350;2023-07-08T00:44:45;95035.59;;;19.66;100.00
23164;BME280;31429;42.674;23.350;2023-07-08T00:45:49;95026.97;;;19.65;100.00
23164;BME280;31429;42.674;23.350;2023-07-08T00:46:58;95031.84;;;19.70;100.00
23164;BME280;31429;42.674;23.350;2023-07-08T00:48:08;95026.44;;;19.73;100.00
23164;BME280;31429;42.674;23.350;2023-07-08T00:49:25;95022.41;;;19.69;100.00
23164;BME280;31429;42.674;23.350;2023-07-08T00:50:26;95026.97;;;19.78;100.00
23164;BME280;31429;42.674;23.350;2023-07-08T00:51:27;95028.94;;;19.62;100.00
23164;BME280;31429;42.674;23.350;2023-07-08T00:52:29;95032.78;;;19.56;100.00
23164;BME280;31429;42.674;23.350;2023-07-08T00:53:31;95026.88;;;19.54;100.00
23164;BME280;31429;42.674;23.350;2023-07-08T00:54:32;95024.28;;;19.54;100.00
23164;BME280;31429;42.674;23.350;2023-07-08T00:55:33;95029.91;;;19.61;100.00
23164;BME280;31429;42.674;23.350;2023-07-08T00:56:36;95025.34;;;19.52;100.00
23164;BME280;31429;42.674;23.350;2023-07-08T00:57:42;95027.41;;;19.46;100.00
23164;BME280;31429;42.674;23.350;2023-07-08T00:58:49;95031.66;;;19.47;100.00
23164;BME280;31429;42.674;23.350;2023-07-08T00:59:54;95030.72;;;19.48;100.00
23164;BME280;31429;42.674;23.350;2023-07-08T01:00:56;95025.97;;;19.55;100.00
23164;BME280;31429;42.674;23.350;2023-07-08T01:01:59;95027.69;;;19.67;100.00
23164;BME280;31429;42.674;23.350;2023-07-08T01:03:01;95020.94;;;19.65;100.00
23164;BME280;31429;42.674;23.350;2023-07-08T01:04:04;95017.03;;;19.46;100.00
23164;BME280;31429;42.674;23.350;2023-07-08T01:05:08;95026.34;;;19.36;100.00
23164;BME280;31429;42.674;23.350;2023-07-08T01:06:11;95023.47;;;19.41;100.00
23164;BME280;31429;42.674;23.350;2023-07-08T01:07:13;95021.97;;;19.37;100.00
23164;BME280;31429;42.674;23.350;2023-07-08T01:08:23;95015.97;;;19.36;100.00
23164;BME280;31429;42.674;23.350;2023-07-08T01:09:32;95009.94;;;19.36;100.00
23164;BME280;31429;42.674;23.350;2023-07-08T01:10:47;95001.91;;;19.40;100.00
23164;BME280;31429;42.674;23.350;2023-07-08T01:11:49;95014.53;;;19.32;100.00
23164;BME280;31429;42.674;23.350;2023-07-08T01:12:54;95006.66;;;19.46;100.00
23164;BME280;31429;42.674;23.350;2023-07-08T01:13:57;95009.44;;;19.56;100.00
23164;BME280;31429;42.674;23.350;2023-07-08T01:15:00;95012.03;;;19.56;100.00
23164;BME280;31429;42.674;23.350;2023-07-08T01:16:03;95011.75;;;19.61;100.00
23164;BME280;31429;42.674;23.350;2023-07-08T01:17:04;95008.22;;;19.49;100.00
23164;BME280;31429;42.674;23.350;2023-07-08T01:18:05;95000.41;;;19.62;100.00
23164;BME280;31429;42.674;23.350;2023-07-08T01:19:14;95007.25;;;19.50;100.00
23164;BME280;31429;42.674;23.350;2023-07-08T01:20:16;95003.25;;;19.46;100.00
23164;BME280;31429;42.674;23.350;2023-07-08T01:21:30;94999.41;;;19.52;100.00
23164;BME280;31429;42.674;23.350;2023-07-08T01:22:34;95008.72;;;19.41;100.00
23164;BME280;31429;42.674;23.350;2023-07-08T01:23:35;95007.91;;;19.41;100.00
23164;BME280;31429;42.674;23.350;2023-07-08T01:24:39;95011.44;;;19.40;100.00
23164;BME280;31429;42.674;23.350;2023-07-08T01:25:42;94995.63;;;19.56;100.00
23164;BME280;31429;42.674;23.350;2023-07-08T01:26:44;95005.31;;;19.54;100.00
23164;BME280;31429;42.674;23.350;2023-07-08T01:27:48;94999.50;;;19.50;100.00
23164;BME280;31429;42.674;23.350;2023-07-08T01:28:49;94998.34;;;19.54;100.00
23164;BME280;31429;42.674;23.350;2023-07-08T01:29:51;95000.66;;;19.46;100.00
23164;BME280;31429;42.674;23.350;2023-07-08T01:30:52;95001.66;;;19.56;100.00
23164;BME280;31429;42.674;23.350;2023-07-08T01:31:54;94993.16;;;19.67;100.00
23164;BME280;31429;42.674;23.350;2023-07-08T01:32:59;94998.22;;;19.56;100.00
23164;BME280;31429;42.674;23.350;2023-07-08T01:34:02;94998.78;;;19.61;100.00
23164;BME280;31429;42.674;23.350;2023-07-08T01:35:04;95000.44;;;19.49;100.00
23164;BME280;31429;42.674;23.350;2023-07-08T01:36:04;95009.34;;;19.58;100.00
23164;BME280;31429;42.674;23.350;2023-07-08T01:37:06;94995.63;;;19.56;100.00
23164;BME280;31429;42.674;23.350;2023-07-08T01:38:10;95000.22;;;19.52;100.00
23164;BME280;31429;42.674;23.350;2023-07-08T01:39:13;94995.75;;;19.41;100.00
23164;BME280;31429;42.674;23.350;2023-07-08T01:40:17;95001.78;;;19.42;100.00
23164;BME280;31429;42.674;23.350;2023-07-08T01:41:22;95007.09;;;19.40;100.00
23164;BME280;31429;42.674;23.350;2023-07-08T01:42:23;95001.78;;;19.42;100.00
23164;BME280;31429;42.674;23.350;2023-07-08T01:43:24;95005.31;;;19.41;100.00
23164;BME280;31429;42.674;23.350;2023-07-08T01:44:28;94998.25;;;19.43;100.00
23164;BME280;31429;42.674;23.350;2023-07-08T01:45:32;95001.34;;;19.23;100.00
23164;BME280;31429;42.674;23.350;2023-07-08T01:46:34;94996.56;;;19.17;100.00
23164;BME280;31429;42.674;23.350;2023-07-08T01:47:35;94997.94;;;19.10;100.00
23164;BME280;31429;42.674;23.350;2023-07-08T01:48:38;94998.44;;;19.15;100.00
23164;BME280;31429;42.674;23.350;2023-07-08T01:49:41;94993.88;;;19.18;100.00
23164;BME280;31429;42.674;23.350;2023-07-08T01:50:47;94989.09;;;19.25;100.00
23164;BME280;31429;42.674;23.350;2023-07-08T01:51:49;94988.91;;;19.28;100.00
23164;BME280;31429;42.674;23.350;2023-07-08T01:52:52;94994.59;;;19.33;100.00
23164;BME280;31429;42.674;23.350;2023-07-08T01:53:55;94987.84;;;19.30;100.00
23164;BME280;31429;42.674;23.350;2023-07-08T01:54:56;94981.72;;;19.19;100.00
23164;BME280;31429;42.674;23.350;2023-07-08T01:55:56;94990.78;;;19.26;100.00
23164;BME280;31429;42.674;23.350;2023-07-08T01:56:57;94987.66;;;19.21;100.00
23164;BME280;31429;42.674;23.350;2023-07-08T01:57:58;94984.97;;;19.10;100.00
23164;BME280;31429;42.674;23.350;2023-07-08T01:58:59;94989.41;;;19.08;100.00
23164;BME280;31429;42.674;23.350;2023-07-08T01:59:59;94982.47;;;19.08;100.00
23164;BME280;31429;42.674;23.350;2023-07-08T02:01:00;94974.81;;;19.32;100.00
23164;BME280;31429;42.674;23.350;2023-07-08T02:02:01;94983.63;;;19.29;100.00
23164;BME280;31429;42.674;23.350;2023-07-08T02:03:02;94981.75;;;19.06;100.00
23164;BME280;31429;42.674;23.350;2023-07-08T02:04:03;94982.97;;;19.13;100.00
23164;BME280;31429;42.674;23.350;2023-07-08T02:05:04;94986.31;;;19.15;100.00
23164;BME280;31429;42.674;23.350;2023-07-08T02:06:05;94982.69;;;19.18;100.00
23164;BME280;31429;42.674;23.350;2023-07-08T02:07:06;94981.72;;;19.19;100.00
23164;BME280;31429;42.674;23.350;2023-07-08T02:08:06;94980.59;;;19.23;100.00
23164;BME280;31429;42.674;23.350;2023-07-08T02:09:08;94986.72;;;19.22;100.00
23164;BME280;31429;42.674;23.350;2023-07-08T02:10:09;94987.66;;;19.21;100.00
23164;BME280;31429;42.674;23.350;2023-07-08T02:11:10;94992.84;;;19.08;100.00
23164;BME280;31429;42.674;23.350;2023-07-08T02:12:10;94992.63;;;19.11;100.00
23164;BME280;31429;42.674;23.350;2023-07-08T02:13:11;94998.88;;;19.21;100.00
23164;BME280;31429;42.674;23.350;2023-07-08T02:14:12;94999.69;;;19.09;100.00
23164;BME280;31429;42.674;23.350;2023-07-08T02:15:13;94995.44;;;19.21;100.00
23164;BME280;31429;42.674;23.350;2023-07-08T02:16:14;95003.50;;;19.16;100.00
23164;BME280;31429;42.674;23.350;2023-07-08T02:17:15;94999.88;;;19.06;100.00
23164;BME280;31429;42.674;23.350;2023-07-08T02:18:17;95008.59;;;19.18;100.00
23164;BME280;31429;42.674;23.350;2023-07-08T02:19:24;95006.31;;;19.13;100.00
23164;BME280;31429;42.674;23.350;2023-07-08T02:20:24;95003.31;;;19.19;100.00
23164;BME280;31429;42.674;23.350;2023-07-08T02:21:25;95005.50;;;19.13;100.00
23164;BME280;31429;42.674;23.350;2023-07-08T02:22:26;95013.78;;;19.18;100.00
23164;BME280;31429;42.674;23.350;2023-07-08T02:23:27;95010.03;;;19.22;100.00
23164;BME280;31429;42.674;23.350;2023-07-08T02:24:29;95011.72;;;19.23;100.00
23164;BME280;31429;42.674;23.350;2023-07-08T02:25:29;95012.53;;;19.23;100.00
23164;BME280;31429;42.674;23.350;2023-07-08T02:26:30;95015.25;;;19.09;100.00
23164;BME280;31429;42.674;23.350;2023-07-08T02:27:33;95007.47;;;19.09;100.00
23164;BME280;31429;42.674;23.350;2023-07-08T02:28:34;95010.69;;;19.13;100.00
23164;BME280;31429;42.674;23.350;2023-07-08T02:29:34;95007.34;;;19.11;100.00
23164;BME280;31429;42.674;23.350;2023-07-08T02:30:35;95010.13;;;18.95;100.00
23164;BME280;31429;42.674;23.350;2023-07-08T02:31:37;95012.22;;;19.03;100.00
23164;BME280;31429;42.674;23.350;2023-07-08T02:32:37;95014.81;;;19.03;100.00
23164;BME280;31429;42.674;23.350;2023-07-08T02:33:39;95024.13;;;19.05;100.00
23164;BME280;31429;42.674;23.350;2023-07-08T02:34:39;95025.28;;;19.01;100.00
23164;BME280;31429;42.674;23.350;2023-07-08T02:35:40;95017.41;;;19.03;100.00
23164;BME280;31429;42.674;23.350;2023-07-08T02:36:41;95027.56;;;19.06;100.00
23164;BME280;31429;42.674;23.350;2023-07-08T02:37:41;95028.06;;;19.11;100.00
23164;BME280;31429;42.674;23.350;2023-07-08T02:38:42;95021.34;;;19.08;100.00
23164;BME280;31429;42.674;23.350;2023-07-08T02:39:44;95027.13;;;18.99;100.00
23164;BME280;31429;42.674;23.350;2023-07-08T02:40:44;95023.63;;;19.00;100.00
23164;BME280;31429;42.674;23.350;2023-07-08T02:41:45;95026.63;;;19.07;100.00
23164;BME280;31429;42.674;23.350;2023-07-08T02:42:46;95022.38;;;19.06;100.00
23164;BME280;31429;42.674;23.350;2023-07-08T02:43:46;95027.03;;;19.01;100.00
23164;BME280;31429;42.674;23.350;2023-07-08T02:44:47;95028.41;;;19.06;100.00
23164;BME280;31429;42.674;23.350;2023-07-08T02:45:49;95032.53;;;19.09;100.00
23164;BME280;31429;42.674;23.350;2023-07-08T02:46:50;95030.28;;;19.29;100.00
23164;BME280;31429;42.674;23.350;2023-07-08T02:47:50;95034.72;;;19.27;100.00
23164;BME280;31429;42.674;23.350;2023-07-08T02:48:51;95035.25;;;19.20;100.00
23164;BME280;31429;42.674;23.350;2023-07-08T02:49:51;95035.97;;;19.09;100.00
23164;BME280;31429;42.674;23.350;2023-07-08T02:50:58;95035.97;;;19.22;100.00
23164;BME280;31429;42.674;23.350;2023-07-08T02:51:59;95037.97;;;19.18;100.00
23164;BME280;31429;42.674;23.350;2023-07-08T02:53:00;95044.78;;;19.19;100.00
23164;BME280;31429;42.674;23.350;2023-07-08T02:54:00;95038.47;;;19.23;100.00
23164;BME280;31429;42.674;23.350;2023-07-08T02:55:03;95053.31;;;19.21;100.00
23164;BME280;31429;42.674;23.350;2023-07-08T02:56:04;95041.63;;;19.41;100.00
23164;BME280;31429;42.674;23.350;2023-07-08T02:57:05;95054.13;;;19.34;100.00
23164;BME280;31429;42.674;23.350;2023-07-08T02:58:05;95053.50;;;19.31;100.00
23164;BME280;31429;42.674;23.350;2023-07-08T02:59:06;95056.81;;;19.20;100.00
23164;BME280;31429;42.674;23.350;2023-07-08T03:00:07;95049.78;;;19.35;100.00
23164;BME280;31429;42.674;23.350;2023-07-08T03:01:08;95042.66;;;19.51;100.00
23164;BME280;31429;42.674;23.350;2023-07-08T03:02:09;95042.28;;;19.30;100.00
23164;BME280;31429;42.674;23.350;2023-07-08T03:03:10;95053.41;;;19.20;100.00
23164;BME280;31429;42.674;23.350;2023-07-08T03:04:11;95044.56;;;19.22;100.00
23164;BME280;31429;42.674;23.350;2023-07-08T03:05:14;95039.63;;;19.32;100.00
23164;BME280;31429;42.674;23.350;2023-07-08T03:06:15;95039.81;;;19.29;100.00
23164;BME280;31429;42.674;23.350;2023-07-08T03:07:16;95041.91;;;19.24;100.00
23164;BME280;31429;42.674;23.350;2023-07-08T03:08:17;95046.75;;;19.28;100.00
23164;BME280;31429;42.674;23.350;2023-07-08T03:09:18;95040.84;;;19.14;100.00
23164;BME280;31429;42.674;23.350;2023-07-08T03:10:20;95032.66;;;19.20;100.00
23164;BME280;31429;42.674;23.350;2023-07-08T03:11:21;95035.03;;;19.23;100.00
23164;BME280;31429;42.674;23.350;2023-07-08T03:12:21;95036.28;;;19.17;100.00
23164;BME280;31429;42.674;23.350;2023-07-08T03:13:22;95027.88;;;19.14;100.00
23164;BME280;31429;42.674;23.350;2023-07-08T03:14:23;95036.59;;;19.13;100.00
23164;BME280;31429;42.674;23.350;2023-07-08T03:15:24;95033.94;;;19.39;100.00
23164;BME280;31429;42.674;23.350;2023-07-08T03:16:24;95039.31;;;19.24;100.00
23164;BME280;31429;42.674;23.350;2023-07-08T03:17:25;95032.19;;;19.40;100.00
23164;BME280;31429;42.674;23.350;2023-07-08T03:18:26;95042.69;;;19.24;100.00
23164;BME280;31429;42.674;23.350;2023-07-08T03:19:26;95037.22;;;19.29;100.00
23164;BME280;31429;42.674;23.350;2023-07-08T03:20:27;95040.22;;;19.23;100.00
23164;BME280;31429;42.674;23.350;2023-07-08T03:21:28;95037.53;;;19.24;100.00
23164;BME280;31429;42.674;23.350;2023-07-08T03:22:29;95031.31;;;19.27;100.00
23164;BME280;31429;42.674;23.350;2023-07-08T03:23:29;95043.53;;;19.25;100.00
23164;BME280;31429;42.674;23.350;2023-07-08T03:24:30;95033.38;;;19.22;100.00
23164;BME280;31429;42.674;23.350;2023-07-08T03:25:35;95036.50;;;19.27;100.00
23164;BME280;31429;42.674;23.350;2023-07-08T03:26:36;95033.81;;;19.28;100.00
23164;BME280;31429;42.674;23.350;2023-07-08T03:27:37;95039.59;;;19.07;100.00
23164;BME280;31429;42.674;23.350;2023-07-08T03:28:37;95028.38;;;19.19;100.00
23164;BME280;31429;42.674;23.350;2023-07-08T03:29:38;95030.88;;;19.33;100.00
23164;BME280;31429;42.674;23.350;2023-07-08T03:30:39;95035.06;;;19.35;100.00
23164;BME280;31429;42.674;23.350;2023-07-08T03:31:40;95036.91;;;19.33;100.00
23164;BME280;31429;42.674;23.350;2023-07-08T03:32:40;95040.25;;;19.35;100.00
23164;BME280;31429;42.674;23.350;2023-07-08T03:33:41;95035.88;;;19.23;100.00
23164;BME280;31429;42.674;23.350;2023-07-08T03:34:42;95032.34;;;19.24;100.00
23164;BME280;31429;42.674;23.350;2023-07-08T03:35:42;95031.19;;;19.16;100.00
23164;BME280;31429;42.674;23.350;2023-07-08T03:36:45;95020.13;;;19.26;100.00
23164;BME280;31429;42.674;23.350;2023-07-08T03:37:49;95025.81;;;19.31;100.00
23164;BME280;31429;42.674;23.350;2023-07-08T03:38:50;95025.31;;;19.26;100.00
23164;BME280;31429;42.674;23.350;2023-07-08T03:39:51;95028.22;;;19.34;100.00
23164;BME280;31429;42.674;23.350;2023-07-08T03:40:53;95025.72;;;19.20;100.00
23164;BME280;31429;42.674;23.350;2023-07-08T03:41:54;95029.97;;;19.34;100.00
23164;BME280;31429;42.674;23.350;2023-07-08T03:42:55;95032.25;;;19.38;100.00
23164;BME280;31429;42.674;23.350;2023-07-08T03:43:55;95032.97;;;19.28;100.00
23164;BME280;31429;42.674;23.350;2023-07-08T03:44:56;95030.16;;;19.31;100.00
23164;BME280;31429;42.674;23.350;2023-07-08T03:45:57;95026.56;;;19.21;100.00
23164;BME280;31429;42.674;23.350;2023-07-08T03:46:57;95027.38;;;19.34;100.00
23164;BME280;31429;42.674;23.350;2023-07-08T03:47:58;95024.25;;;19.29;100.00
23164;BME280;31429;42.674;23.350;2023-07-08T03:48:59;95025.09;;;19.29;100.00
23164;BME280;31429;42.674;23.350;2023-07-08T03:50:00;95020.41;;;19.22;100.00
23164;BME280;31429;42.674;23.350;2023-07-08T03:51:01;95020.81;;;19.16;100.00
23164;BME280;31429;42.674;23.350;2023-07-08T03:52:02;95022.09;;;19.23;100.00
23164;BME280;31429;42.674;23.350;2023-07-08T03:53:02;95024.88;;;19.20;100.00
23164;BME280;31429;42.674;23.350;2023-07-08T03:54:03;95028.28;;;19.08;100.00
23164;BME280;31429;42.674;23.350;2023-07-08T03:55:05;95025.91;;;19.17;100.00
23164;BME280;31429;42.674;23.350;2023-07-08T03:56:11;95025.19;;;19.28;100.00
23164;BME280;31429;42.674;23.350;2023-07-08T03:57:13;95027.97;;;19.25;100.00
23164;BME280;31429;42.674;23.350;2023-07-08T03:58:14;95027.41;;;19.46;100.00
23164;BME280;31429;42.674;23.350;2023-07-08T03:59:15;95023.03;;;19.34;100.00
23164;BME280;31429;42.674;23.350;2023-07-08T04:00:15;95022.72;;;19.39;100.00
23164;BME280;31429;42.674;23.350;2023-07-08T04:01:17;95024.41;;;19.40;100.00
23164;BME280;31429;42.674;23.350;2023-07-08T04:02:18;95025.22;;;19.40;100.00
23164;BME280;31429;42.674;23.350;2023-07-08T04:03:19;95024.03;;;19.19;100.00
23164;BME280;31429;42.674;23.350;2023-07-08T04:04:20;95029.44;;;19.29;100.00
23164;BME280;31429;42.674;23.350;2023-07-08T04:05:22;95022.19;;;19.34;100.00
23164;BME280;31429;42.674;23.350;2023-07-08T04:06:23;95019.16;;;19.27;100.00
23164;BME280;31429;42.674;23.350;2023-07-08T04:07:24;95018.97;;;19.30;100.00
23164;BME280;31429;42.674;23.350;2023-07-08T04:08:25;95028.09;;;19.36;100.00
23164;BME280;31429;42.674;23.350;2023-07-08T04:09:25;95028.84;;;19.50;100.00
23164;BME280;31429;42.674;23.350;2023-07-08T04:10:26;95025.94;;;19.42;100.00
23164;BME280;31429;42.674;23.350;2023-07-08T04:11:28;95027.09;;;19.38;100.00
23164;BME280;31429;42.674;23.350;2023-07-08T04:12:28;95036.59;;;19.25;100.00
23164;BME280;31429;42.674;23.350;2023-07-08T04:13:29;95031.09;;;19.17;100.00
23164;BME280;31429;42.674;23.350;2023-07-08T04:14:30;95033.28;;;19.36;100.00
23164;BME280;31429;42.674;23.350;2023-07-08T04:15:30;95042.84;;;19.35;100.00
23164;BME280;31429;42.674;23.350;2023-07-08T04:16:45;95039.13;;;19.52;100.00
23164;BME280;31429;42.674;23.350;2023-07-08T04:17:48;95038.19;;;19.40;100.00
23164;BME280;31429;42.674;23.350;2023-07-08T04:18:49;95037.97;;;19.56;100.00
23164;BME280;31429;42.674;23.350;2023-07-08T04:19:51;95034.25;;;19.47;100.00
23164;BME280;31429;42.674;23.350;2023-07-08T04:20:51;95041.72;;;19.52;100.00
23164;BME280;31429;42.674;23.350;2023-07-08T04:21:55;95044.72;;;19.59;100.00
23164;BME280;31429;42.674;23.350;2023-07-08T04:22:56;95038.94;;;19.55;100.00
23164;BME280;31429;42.674;23.350;2023-07-08T04:23:56;95042.66;;;19.51;100.00
23164;BME280;31429;42.674;23.350;2023-07-08T04:24:57;95040.28;;;19.61;100.00
23164;BME280;31429;42.674;23.350;2023-07-08T04:25:58;95043.38;;;19.53;100.00
23164;BME280;31429;42.674;23.350;2023-07-08T04:27:00;95046.19;;;19.63;100.00
23164;BME280;31429;42.674;23.350;2023-07-08T04:28:01;95043.66;;;19.61;100.00
23164;BME280;31429;42.674;23.350;2023-07-08T04:29:02;95045.88;;;19.42;100.00
23164;BME280;31429;42.674;23.350;2023-07-08T04:30:03;95047.09;;;19.62;100.00
23164;BME280;31429;42.674;23.350;2023-07-08T04:31:04;95040.47;;;19.58;100.00
23164;BME280;31429;42.674;23.350;2023-07-08T04:32:05;95048.78;;;19.63;100.00
23164;BME280;31429;42.674;23.350;2023-07-08T04:33:06;95049.91;;;19.71;100.00
23164;BME280;31429;42.674;23.350;2023-07-08T04:34:09;95043.69;;;19.48;100.00
23164;BME280;31429;42.674;23.350;2023-07-08T04:35:09;95039.41;;;19.35;100.00
23164;BME280;31429;42.674;23.350;2023-07-08T04:36:12;95043.19;;;19.43;100.00
23164;BME280;31429;42.674;23.350;2023-07-08T04:37:13;95048.25;;;19.58;100.00
23164;BME280;31429;42.674;23.350;2023-07-08T04:38:16;95048.16;;;19.59;100.00
23164;BME280;31429;42.674;23.350;2023-07-08T04:39:17;95052.69;;;19.56;100.00
23164;BME280;31429;42.674;23.350;2023-07-08T04:40:20;95053.53;;;19.69;100.00
23164;BME280;31429;42.674;23.350;2023-07-08T04:41:21;95053.13;;;19.75;100.00
23164;BME280;31429;42.674;23.350;2023-07-08T04:42:23;95059.56;;;19.69;100.00
23164;BME280;31429;42.674;23.350;2023-07-08T04:43:24;95049.75;;;19.98;100.00
23164;BME280;31429;42.674;23.350;2023-07-08T04:44:29;95052.47;;;19.96;100.00
23164;BME280;31429;42.674;23.350;2023-07-08T04:45:33;95051.28;;;20.13;100.00
23164;BME280;31429;42.674;23.350;2023-07-08T04:46:36;95051.41;;;20.12;100.00
23164;BME280;31429;42.674;23.350;2023-07-08T04:47:39;95046.81;;;20.15;100.00
23164;BME280;31429;42.674;23.350;2023-07-08T04:48:39;95045.81;;;20.05;100.00
23164;BME280;31429;42.674;23.350;2023-07-08T04:49:40;95045.38;;;20.11;100.00
23164;BME280;31429;42.674;23.350;2023-07-08T04:50:45;95046.78;;;19.91;100.00
23164;BME280;31429;42.674;23.350;2023-07-08T04:51:46;95045.69;;;20.06;100.00
23164;BME280;31429;42.674;23.350;2023-07-08T04:52:47;95054.44;;;19.93;100.00
23164;BME280;31429;42.674;23.350;2023-07-08T04:53:47;95049.84;;;20.09;100.00
23164;BME280;31429;42.674;23.350;2023-07-08T04:54:49;95053.03;;;20.13;100.00
23164;BME280;31429;42.674;23.350;2023-07-08T04:55:52;95053.16;;;20.11;100.00
23164;BME280;31429;42.674;23.350;2023-07-08T04:56:54;95060.41;;;20.19;100.00
23164;BME280;31429;42.674;23.350;2023-07-08T04:57:56;95061.03;;;20.22;100.00
23164;BME280;31429;42.674;23.350;2023-07-08T04:58:56;95065.22;;;20.12;100.00
23164;BME280;31429;42.674;23.350;2023-07-08T04:59:57;95058.25;;;20.25;100.00
23164;BME280;31429;42.674;23.350;2023-07-08T05:00:57;95060.50;;;20.30;100.00
23164;BME280;31429;42.674;23.350;2023-07-08T05:01:58;95063.88;;;19.94;100.00
23164;BME280;31429;42.674;23.350;2023-07-08T05:02:59;95060.38;;;19.95;100.00
23164;BME280;31429;42.674;23.350;2023-07-08T05:03:59;95068.53;;;20.01;100.00
23164;BME280;31429;42.674;23.350;2023-07-08T05:05:00;95062.09;;;20.07;100.00
23164;BME280;31429;42.674;23.350;2023-07-08T05:06:01;95073.00;;;20.12;100.00
23164;BME280;31429;42.674;23.350;2023-07-08T05:07:02;95068.03;;;20.09;100.00
23164;BME280;31429;42.674;23.350;2023-07-08T05:08:03;95073.81;;;20.13;100.00
23164;BME280;31429;42.674;23.350;2023-07-08T05:09:04;95073.38;;;20.19;100.00
23164;BME280;31429;42.674;23.350;2023-07-08T05:10:06;95075.88;;;20.20;100.00
23164;BME280;31429;42.674;23.350;2023-07-08T05:11:07;95073.72;;;20.14;100.00
23164;BME280;31429;42.674;23.350;2023-07-08T05:12:08;95074.72;;;20.24;100.00
23164;BME280;31429;42.674;23.350;2023-07-08T05:13:10;95064.78;;;20.31;100.00
23164;BME280;31429;42.674;23.350;2023-07-08T05:14:12;95079.22;;;20.35;100.00
23164;BME280;31429;42.674;23.350;2023-07-08T05:15:14;95063.44;;;20.25;100.00
23164;BME280;31429;42.674;23.350;2023-07-08T05:16:15;95068.19;;;20.19;100.00
23164;BME280;31429;42.674;23.350;2023-07-08T05:17:15;95076.50;;;20.36;100.00
23164;BME280;31429;42.674;23.350;2023-07-08T05:18:16;95072.19;;;20.48;100.00
23164;BME280;31429;42.674;23.350;2023-07-08T05:19:17;95082.69;;;20.46;100.00